sensor_id;sensor_type;location;lat;lon;timestamp;temperature;humidity
20704;DHT22;62934;49.420;8.652;2022-09-09T00:02:03;20.10;99.90
20704;DHT22;62934;49.420;8.652;2022-09-09T00:04:32;20.20;99.90
20704;DHT22;62934;49.420;8.652;2022-09-09T00:07:21;20.10;99.90
20704;DHT22;62934;49.420;8.652;2022-09-09T00:12:46;20.00;99.90
20704;DHT22;62934;49.420;8.652;2022-09-09T00:15:21;20.00;99.90
20704;DHT22;62934;49.420;8.652;2022-09-09T00:18:01;19.90;99.90
20704;DHT22;62934;49.420;8.652;2022-09-09T00:20:40;19.90;99.90
20704;DHT22;62934;49.420;8.652;2022-09-09T00:23:30;19.90;99.90
20704;DHT22;62934;49.420;8.652;2022-09-09T00:31:29;20.00;99.90
20704;DHT22;62934;49.420;8.652;2022-09-09T00:33:58;20.00;99.90
20704;DHT22;62934;49.420;8.652;2022-09-09T00:36:28;20.00;99.90
20704;DHT22;62934;49.420;8.652;2022-09-09T00:39:00;20.00;99.90
20704;DHT22;62934;49.420;8.652;2022-09-09T00:44:34;20.10;99.90
20704;DHT22;62934;49.420;8.652;2022-09-09T00:52:43;20.10;99.90
20704;DHT22;62934;49.420;8.652;2022-09-09T00:57:59;20.00;99.90
20704;DHT22;62934;49.420;8.652;2022-09-09T01:00:28;20.00;99.90
20704;DHT22;62934;49.420;8.652;2022-09-09T01:08:07;19.90;99.90
20704;DHT22;62934;49.420;8.652;2022-09-09T01:10:53;19.90;99.90
20704;DHT22;62934;49.420;8.652;2022-09-09T01:13:27;19.90;99.90
20704;DHT22;62934;49.420;8.652;2022-09-09T01:15:57;19.80;99.90
20704;DHT22;62934;49.420;8.652;2022-09-09T01:18:29;19.90;99.90
20704;DHT22;62934;49.420;8.652;2022-09-09T01:26:44;19.90;99.90
20704;DHT22;62934;49.420;8.652;2022-09-09T01:29:13;20.00;99.90
20704;DHT22;62934;49.420;8.652;2022-09-09T01:34:14;20.00;99.90
20704;DHT22;62934;49.420;8.652;2022-09-09T01:39:16;20.10;99.90
20704;DHT22;62934;49.420;8.652;2022-09-09T01:41:42;20.10;99.90
20704;DHT22;62934;49.420;8.652;2022-09-09T01:44:09;20.10;99.90
20704;DHT22;62934;49.420;8.652;2022-09-09T01:46:35;20.00;99.90
20704;DHT22;62934;49.420;8.652;2022-09-09T01:49:03;20.00;99.90
20704;DHT22;62934;49.420;8.652;2022-09-09T01:51:29;20.00;99.90
20704;DHT22;62934;49.420;8.652;2022-09-09T01:53:55;20.00;99.90
20704;DHT22;62934;49.420;8.652;2022-09-09T01:56:24;20.00;99.90
20704;DHT22;62934;49.420;8.652;2022-09-09T01:59:14;20.00;99.90
20704;DHT22;62934;49.420;8.652;2022-09-09T02:02:22;20.00;99.90
20704;DHT22;62934;49.420;8.652;2022-09-09T02:04:55;19.90;99.90
20704;DHT22;62934;49.420;8.652;2022-09-09T02:12:36;19.90;99.90
20704;DHT22;62934;49.420;8.652;2022-09-09T02:15:11;19.90;99.90
20704;DHT22;62934;49.420;8.652;2022-09-09T02:17:38;19.90;99.90
20704;DHT22;62934;49.420;8.652;2022-09-09T02:20:12;19.90;99.90
20704;DHT22;62934;49.420;8.652;2022-09-09T02:22:42;19.90;99.90
20704;DHT22;62934;49.420;8.652;2022-09-09T02:25:12;19.90;99.90
20704;DHT22;62934;49.420;8.652;2022-09-09T02:27:40;19.90;99.90
20704;DHT22;62934;49.420;8.652;2022-09-09T02:30:09;19.90;99.90
20704;DHT22;62934;49.420;8.652;2022-09-09T02:32:35;19.90;99.90
20704;DHT22;62934;49.420;8.652;2022-09-09T02:35:07;19.80;99.90
20704;DHT22;62934;49.420;8.652;2022-09-09T02:37:40;19.80;99.90
20704;DHT22;62934;49.420;8.652;2022-09-09T02:40:09;19.80;99.90
20704;DHT22;62934;49.420;8.652;2022-09-09T02:42:40;19.80;99.90
20704;DHT22;62934;49.420;8.652;2022-09-09T02:45:07;19.80;99.90
20704;DHT22;62934;49.420;8.652;2022-09-09T02:47:35;19.70;99.90
20704;DHT22;62934;49.420;8.652;2022-09-09T02:55:35;19.80;99.90
20704;DHT22;62934;49.420;8.652;2022-09-09T02:58:05;19.80;99.90
20704;DHT22;62934;49.420;8.652;2022-09-09T03:00:33;19.80;99.90
20704;DHT22;62934;49.420;8.652;2022-09-09T03:03:02;19.80;99.90
20704;DHT22;62934;49.420;8.652;2022-09-09T03:05:28;19.80;99.90
20704;DHT22;62934;49.420;8.652;2022-09-09T03:07:54;19.80;99.90
20704;DHT22;62934;49.420;8.652;2022-09-09T03:10:20;19.80;99.90
20704;DHT22;62934;49.420;8.652;2022-09-09T03:12:46;19.80;99.90
20704;DHT22;62934;49.420;8.652;2022-09-09T03:15:11;19.80;99.90
20704;DHT22;62934;49.420;8.652;2022-09-09T03:17:37;19.60;99.90
20704;DHT22;62934;49.420;8.652;2022-09-09T03:20:08;19.60;99.90
20704;DHT22;62934;49.420;8.652;2022-09-09T03:22:34;19.60;99.90
20704;DHT22;62934;49.420;8.652;2022-09-09T03:25:00;19.60;99.90
20704;DHT22;62934;49.420;8.652;2022-09-09T03:27:28;19.60;99.90
20704;DHT22;62934;49.420;8.652;2022-09-09T03:29:54;19.60;99.90
20704;DHT22;62934;49.420;8.652;2022-09-09T03:32:19;19.60;99.90
20704;DHT22;62934;49.420;8.652;2022-09-09T03:34:48;19.60;99.90
20704;DHT22;62934;49.420;8.652;2022-09-09T03:37:15;19.60;99.90
20704;DHT22;62934;49.420;8.652;2022-09-09T03:39:41;19.60;99.90
20704;DHT22;62934;49.420;8.652;2022-09-09T03:42:07;19.60;99.90
20704;DHT22;62934;49.420;8.652;2022-09-09T03:44:32;19.50;99.90
20704;DHT22;62934;49.420;8.652;2022-09-09T03:46:58;19.50;99.90
20704;DHT22;62934;49.420;8.652;2022-09-09T03:49:26;19.60;99.90
20704;DHT22;62934;49.420;8.652;2022-09-09T03:51:55;19.50;99.90
20704;DHT22;62934;49.420;8.652;2022-09-09T03:54:22;19.50;99.90
20704;DHT22;62934;49.420;8.652;2022-09-09T03:56:48;19.40;99.90
20704;DHT22;62934;49.420;8.652;2022-09-09T03:59:13;19.40;99.90
20704;DHT22;62934;49.420;8.652;2022-09-09T04:01:39;19.40;99.90
20704;DHT22;62934;49.420;8.652;2022-09-09T04:04:05;19.50;99.90
20704;DHT22;62934;49.420;8.652;2022-09-09T04:06:31;19.50;99.90
20704;DHT22;62934;49.420;8.652;2022-09-09T04:08:56;19.60;99.90
20704;DHT22;62934;49.420;8.652;2022-09-09T04:11:22;19.50;99.90
20704;DHT22;62934;49.420;8.652;2022-09-09T04:13:48;19.60;99.90
20704;DHT22;62934;49.420;8.652;2022-09-09T04:16:15;19.80;99.90
20704;DHT22;62934;49.420;8.652;2022-09-09T04:18:41;19.90;99.90
20704;DHT22;62934;49.420;8.652;2022-09-09T04:21:08;20.10;99.90
20704;DHT22;62934;49.420;8.652;2022-09-09T04:23:34;20.20;99.90
20704;DHT22;62934;49.420;8.652;2022-09-09T04:26:01;20.20;99.90
20704;DHT22;62934;49.420;8.652;2022-09-09T04:28:32;20.30;99.90
20704;DHT22;62934;49.420;8.652;2022-09-09T04:31:06;20.30;99.90
20704;DHT22;62934;49.420;8.652;2022-09-09T04:33:32;20.20;99.90
20704;DHT22;62934;49.420;8.652;2022-09-09T04:35:57;20.00;99.90
20704;DHT22;62934;49.420;8.652;2022-09-09T04:38:23;19.80;99.90
20704;DHT22;62934;49.420;8.652;2022-09-09T04:40:51;19.90;99.90
20704;DHT22;62934;49.420;8.652;2022-09-09T04:43:17;19.90;99.90
20704;DHT22;62934;49.420;8.652;2022-09-09T04:45:47;19.90;99.90
20704;DHT22;62934;49.420;8.652;2022-09-09T04:48:13;19.90;99.90
20704;DHT22;62934;49.420;8.652;2022-09-09T04:50:39;19.90;99.90
20704;DHT22;62934;49.420;8.652;2022-09-09T04:53:06;19.90;99.90
20704;DHT22;62934;49.420;8.652;2022-09-09T04:55:32;19.90;99.90
20704;DHT22;62934;49.420;8.652;2022-09-09T04:58:04;19.80;99.90
20704;DHT22;62934;49.420;8.652;2022-09-09T05:00:30;19.80;99.90
20704;DHT22;62934;49.420;8.652;2022-09-09T05:02:56;19.80;99.90
20704;DHT22;62934;49.420;8.652;2022-09-09T05:05:21;19.90;99.90
20704;DHT22;62934;49.420;8.652;2022-09-09T05:07:47;19.70;99.90
20704;DHT22;62934;49.420;8.652;2022-09-09T05:10:14;19.60;99.90
20704;DHT22;62934;49.420;8.652;2022-09-09T05:12:41;19.50;99.90
20704;DHT22;62934;49.420;8.652;2022-09-09T05:15:08;19.60;99.90
20704;DHT22;62934;49.420;8.652;2022-09-09T05:17:33;19.70;99.90
20704;DHT22;62934;49.420;8.652;2022-09-09T05:19:59;19.70;99.90
20704;DHT22;62934;49.420;8.652;2022-09-09T05:22:25;20.00;99.90
20704;DHT22;62934;49.420;8.652;2022-09-09T05:24:50;20.20;99.90
20704;DHT22;62934;49.420;8.652;2022-09-09T05:27:20;20.40;99.90
20704;DHT22;62934;49.420;8.652;2022-09-09T05:29:46;20.40;99.90
20704;DHT22;62934;49.420;8.652;2022-09-09T05:32:12;20.40;99.90
20704;DHT22;62934;49.420;8.652;2022-09-09T05:34:40;20.30;99.90
20704;DHT22;62934;49.420;8.652;2022-09-09T05:37:06;20.40;99.90
20704;DHT22;62934;49.420;8.652;2022-09-09T05:39:33;20.30;99.90
20704;DHT22;62934;49.420;8.652;2022-09-09T05:41:59;20.10;99.90
20704;DHT22;62934;49.420;8.652;2022-09-09T05:44:25;19.90;99.90
20704;DHT22;62934;49.420;8.652;2022-09-09T05:46:53;19.90;99.90
20704;DHT22;62934;49.420;8.652;2022-09-09T05:49:19;20.10;99.90
20704;DHT22;62934;49.420;8.652;2022-09-09T05:51:46;20.30;99.90
20704;DHT22;62934;49.420;8.652;2022-09-09T05:54:12;20.50;99.90
20704;DHT22;62934;49.420;8.652;2022-09-09T05:56:40;20.70;99.90
20704;DHT22;62934;49.420;8.652;2022-09-09T05:59:06;20.70;99.90
20704;DHT22;62934;49.420;8.652;2022-09-09T06:01:33;20.60;99.90
20704;DHT22;62934;49.420;8.652;2022-09-09T06:04:00;20.70;99.90
20704;DHT22;62934;49.420;8.652;2022-09-09T06:06:33;20.60;99.90
20704;DHT22;62934;49.420;8.652;2022-09-09T06:09:04;20.30;99.90
20704;DHT22;62934;49.420;8.652;2022-09-09T06:11:33;20.10;99.90
20704;DHT22;62934;49.420;8.652;2022-09-09T06:13:59;19.90;99.90
20704;DHT22;62934;49.420;8.652;2022-09-09T06:16:27;19.90;99.90
20704;DHT22;62934;49.420;8.652;2022-09-09T06:18:54;20.00;99.90
20704;DHT22;62934;49.420;8.652;2022-09-09T06:21:22;20.00;99.90
20704;DHT22;62934;49.420;8.652;2022-09-09T06:23:48;20.00;99.90
20704;DHT22;62934;49.420;8.652;2022-09-09T06:26:15;19.90;99.90
20704;DHT22;62934;49.420;8.652;2022-09-09T06:28:42;19.80;99.90
20704;DHT22;62934;49.420;8.652;2022-09-09T06:31:11;19.90;99.90
20704;DHT22;62934;49.420;8.652;2022-09-09T06:33:38;19.80;99.90
20704;DHT22;62934;49.420;8.652;2022-09-09T06:36:11;19.80;99.90
20704;DHT22;62934;49.420;8.652;2022-09-09T06:38:37;19.80;99.90
20704;DHT22;62934;49.420;8.652;2022-09-09T06:41:03;19.70;99.90
20704;DHT22;62934;49.420;8.652;2022-09-09T06:43:29;19.80;99.90
20704;DHT22;62934;49.420;8.652;2022-09-09T06:46:02;19.70;99.90
20704;DHT22;62934;49.420;8.652;2022-09-09T06:48:28;19.70;99.90
20704;DHT22;62934;49.420;8.652;2022-09-09T06:51:05;19.70;99.90
20704;DHT22;62934;49.420;8.652;2022-09-09T06:53:32;19.70;99.90
20704;DHT22;62934;49.420;8.652;2022-09-09T06:58:39;19.80;99.90
20704;DHT22;62934;49.420;8.652;2022-09-09T07:01:08;19.90;99.90
20704;DHT22;62934;49.420;8.652;2022-09-09T07:03:35;19.90;99.90
20704;DHT22;62934;49.420;8.652;2022-09-09T07:06:01;19.90;99.90
20704;DHT22;62934;49.420;8.652;2022-09-09T07:08:27;19.90;99.90
20704;DHT22;62934;49.420;8.652;2022-09-09T07:10:53;19.90;99.90
20704;DHT22;62934;49.420;8.652;2022-09-09T07:13:24;20.00;99.90
20704;DHT22;62934;49.420;8.652;2022-09-09T07:15:51;20.00;99.90
20704;DHT22;62934;49.420;8.652;2022-09-09T07:18:17;20.10;99.90
20704;DHT22;62934;49.420;8.652;2022-09-09T07:20:43;20.30;99.90
20704;DHT22;62934;49.420;8.652;2022-09-09T07:23:17;20.50;99.90
20704;DHT22;62934;49.420;8.652;2022-09-09T07:25:46;20.70;99.90
20704;DHT22;62934;49.420;8.652;2022-09-09T07:28:13;20.70;99.90
20704;DHT22;62934;49.420;8.652;2022-09-09T07:30:39;20.80;99.90
20704;DHT22;62934;49.420;8.652;2022-09-09T07:33:05;20.80;99.90
20704;DHT22;62934;49.420;8.652;2022-09-09T07:35:31;20.80;99.90
20704;DHT22;62934;49.420;8.652;2022-09-09T07:37:57;20.70;99.90
20704;DHT22;62934;49.420;8.652;2022-09-09T07:40:24;20.60;99.90
20704;DHT22;62934;49.420;8.652;2022-09-09T07:42:49;20.70;99.90
20704;DHT22;62934;49.420;8.652;2022-09-09T07:45:15;20.80;99.90
20704;DHT22;62934;49.420;8.652;2022-09-09T07:47:41;20.80;99.90
20704;DHT22;62934;49.420;8.652;2022-09-09T07:50:09;20.80;99.90
20704;DHT22;62934;49.420;8.652;2022-09-09T07:52:35;20.80;99.90
20704;DHT22;62934;49.420;8.652;2022-09-09T07:55:01;20.70;99.90
20704;DHT22;62934;49.420;8.652;2022-09-09T07:57:29;20.80;99.90
20704;DHT22;62934;49.420;8.652;2022-09-09T07:59:57;20.80;99.90
20704;DHT22;62934;49.420;8.652;2022-09-09T08:02:24;20.80;99.90
20704;DHT22;62934;49.420;8.652;2022-09-09T08:04:51;20.80;99.90
20704;DHT22;62934;49.420;8.652;2022-09-09T08:07:17;20.90;99.90
20704;DHT22;62934;49.420;8.652;2022-09-09T08:09:43;20.90;99.90
20704;DHT22;62934;49.420;8.652;2022-09-09T08:12:09;20.90;99.90
20704;DHT22;62934;49.420;8.652;2022-09-09T08:14:36;21.00;99.90
20704;DHT22;62934;49.420;8.652;2022-09-09T08:17:02;21.00;99.90
20704;DHT22;62934;49.420;8.652;2022-09-09T08:19:31;21.10;99.90
20704;DHT22;62934;49.420;8.652;2022-09-09T08:21:59;21.10;99.90
20704;DHT22;62934;49.420;8.652;2022-09-09T08:24:27;21.20;99.90
20704;DHT22;62934;49.420;8.652;2022-09-09T08:26:53;21.20;99.90
20704;DHT22;62934;49.420;8.652;2022-09-09T08:29:19;21.30;99.90
20704;DHT22;62934;49.420;8.652;2022-09-09T08:31:50;21.20;99.90
20704;DHT22;62934;49.420;8.652;2022-09-09T08:34:17;21.30;99.90
20704;DHT22;62934;49.420;8.652;2022-09-09T08:36:46;21.30;99.90
20704;DHT22;62934;49.420;8.652;2022-09-09T08:39:13;21.20;99.90
20704;DHT22;62934;49.420;8.652;2022-09-09T08:41:50;21.20;99.90
20704;DHT22;62934;49.420;8.652;2022-09-09T08:53:00;20.90;99.90
20704;DHT22;62934;49.420;8.652;2022-09-09T08:58:16;20.80;99.90
20704;DHT22;62934;49.420;8.652;2022-09-09T09:01:01;20.80;99.90
20704;DHT22;62934;49.420;8.652;2022-09-09T09:11:53;21.00;99.90
20704;DHT22;62934;49.420;8.652;2022-09-09T09:14:23;21.10;99.90
20704;DHT22;62934;49.420;8.652;2022-09-09T09:16:54;21.00;99.90
20704;DHT22;62934;49.420;8.652;2022-09-09T09:19:22;21.00;99.90
20704;DHT22;62934;49.420;8.652;2022-09-09T09:24:29;21.00;99.90
20704;DHT22;62934;49.420;8.652;2022-09-09T09:29:59;21.10;99.90
20704;DHT22;62934;49.420;8.652;2022-09-09T09:32:30;21.20;99.90
20704;DHT22;62934;49.420;8.652;2022-09-09T09:34:58;21.20;99.90
20704;DHT22;62934;49.420;8.652;2022-09-09T09:37:29;21.40;99.90
20704;DHT22;62934;49.420;8.652;2022-09-09T09:39:55;21.50;99.90
20704;DHT22;62934;49.420;8.652;2022-09-09T09:42:21;21.50;99.90
20704;DHT22;62934;49.420;8.652;2022-09-09T09:44:47;21.40;99.90
20704;DHT22;62934;49.420;8.652;2022-09-09T09:47:14;21.50;99.90
20704;DHT22;62934;49.420;8.652;2022-09-09T09:49:51;21.70;99.90
20704;DHT22;62934;49.420;8.652;2022-09-09T09:52:22;21.80;99.90
20704;DHT22;62934;49.420;8.652;2022-09-09T09:54:48;21.80;99.90
20704;DHT22;62934;49.420;8.652;2022-09-09T09:57:16;21.80;99.90
20704;DHT22;62934;49.420;8.652;2022-09-09T09:59:42;21.90;99.90
20704;DHT22;62934;49.420;8.652;2022-09-09T10:02:17;22.00;99.90
20704;DHT22;62934;49.420;8.652;2022-09-09T10:04:43;21.90;99.90
20704;DHT22;62934;49.420;8.652;2022-09-09T10:07:20;21.80;99.90
20704;DHT22;62934;49.420;8.652;2022-09-09T10:09:53;21.70;99.90
20704;DHT22;62934;49.420;8.652;2022-09-09T10:12:40;21.60;99.90
20704;DHT22;62934;49.420;8.652;2022-09-09T10:26:59;21.20;99.90
20704;DHT22;62934;49.420;8.652;2022-09-09T10:32:41;21.60;99.90
20704;DHT22;62934;49.420;8.652;2022-09-09T10:38:14;21.90;99.90
20704;DHT22;62934;49.420;8.652;2022-09-09T10:46:35;22.20;99.90
20704;DHT22;62934;49.420;8.652;2022-09-09T10:49:13;22.40;99.90
20704;DHT22;62934;49.420;8.652;2022-09-09T10:57:33;23.00;98.10
20704;DHT22;62934;49.420;8.652;2022-09-09T11:00:10;23.00;97.60
20704;DHT22;62934;49.420;8.652;2022-09-09T11:02:40;23.00;97.40
20704;DHT22;62934;49.420;8.652;2022-09-09T11:08:04;23.20;96.70
20704;DHT22;62934;49.420;8.652;2022-09-09T11:14:13;23.50;95.80
20704;DHT22;62934;49.420;8.652;2022-09-09T11:17:12;23.60;95.20
20704;DHT22;62934;49.420;8.652;2022-09-09T11:19:43;23.60;94.80
20704;DHT22;62934;49.420;8.652;2022-09-09T11:22:34;23.70;94.80
20704;DHT22;62934;49.420;8.652;2022-09-09T11:25:08;23.80;94.20
20704;DHT22;62934;49.420;8.652;2022-09-09T11:27:43;23.90;94.40
20704;DHT22;62934;49.420;8.652;2022-09-09T11:30:16;23.80;94.40
20704;DHT22;62934;49.420;8.652;2022-09-09T11:32:50;23.80;94.80
20704;DHT22;62934;49.420;8.652;2022-09-09T11:35:39;24.00;94.90
20704;DHT22;62934;49.420;8.652;2022-09-09T11:41:08;24.40;94.20
20704;DHT22;62934;49.420;8.652;2022-09-09T11:43:48;24.50;92.90
20704;DHT22;62934;49.420;8.652;2022-09-09T11:46:32;24.40;93.10
20704;DHT22;62934;49.420;8.652;2022-09-09T11:49:05;24.50;92.50
20704;DHT22;62934;49.420;8.652;2022-09-09T11:51:32;24.50;92.20
20704;DHT22;62934;49.420;8.652;2022-09-09T11:56:48;24.80;91.40
20704;DHT22;62934;49.420;8.652;2022-09-09T11:59:31;24.80;91.10
20704;DHT22;62934;49.420;8.652;2022-09-09T12:02:17;24.50;91.30
20704;DHT22;62934;49.420;8.652;2022-09-09T12:12:50;25.80;88.40
20704;DHT22;62934;49.420;8.652;2022-09-09T12:17:52;25.70;88.50
20704;DHT22;62934;49.420;8.652;2022-09-09T12:20:24;26.10;87.20
20704;DHT22;62934;49.420;8.652;2022-09-09T12:23:13;26.30;84.40
20704;DHT22;62934;49.420;8.652;2022-09-09T12:31:07;26.40;83.00
20704;DHT22;62934;49.420;8.652;2022-09-09T12:33:35;26.50;82.80
20704;DHT22;62934;49.420;8.652;2022-09-09T12:36:03;26.70;82.30
20704;DHT22;62934;49.420;8.652;2022-09-09T12:38:40;26.90;80.80
20704;DHT22;62934;49.420;8.652;2022-09-09T12:41:15;27.10;80.80
20704;DHT22;62934;49.420;8.652;2022-09-09T12:43:45;27.20;80.20
20704;DHT22;62934;49.420;8.652;2022-09-09T12:46:29;27.20;79.20
20704;DHT22;62934;49.420;8.652;2022-09-09T12:48:57;27.30;77.60
20704;DHT22;62934;49.420;8.652;2022-09-09T12:53:52;26.90;77.90
20704;DHT22;62934;49.420;8.652;2022-09-09T12:56:20;26.40;79.00
20704;DHT22;62934;49.420;8.652;2022-09-09T12:58:48;26.50;79.70
20704;DHT22;62934;49.420;8.652;2022-09-09T13:01:26;26.70;79.10
20704;DHT22;62934;49.420;8.652;2022-09-09T13:03:52;27.00;81.00
20704;DHT22;62934;49.420;8.652;2022-09-09T13:06:35;27.50;76.80
20704;DHT22;62934;49.420;8.652;2022-09-09T13:09:02;27.80;73.40
20704;DHT22;62934;49.420;8.652;2022-09-09T13:11:35;28.00;74.10
20704;DHT22;62934;49.420;8.652;2022-09-09T13:14:02;28.00;69.90
20704;DHT22;62934;49.420;8.652;2022-09-09T13:16:32;27.30;72.10
20704;DHT22;62934;49.420;8.652;2022-09-09T13:19:01;26.50;75.50
20704;DHT22;62934;49.420;8.652;2022-09-09T13:21:37;25.80;78.60
20704;DHT22;62934;49.420;8.652;2022-09-09T13:24:05;25.10;79.80
20704;DHT22;62934;49.420;8.652;2022-09-09T13:26:33;24.70;81.80
20704;DHT22;62934;49.420;8.652;2022-09-09T13:29:29;24.20;83.90
20704;DHT22;62934;49.420;8.652;2022-09-09T13:32:16;23.90;85.40
20704;DHT22;62934;49.420;8.652;2022-09-09T13:34:51;23.60;86.10
20704;DHT22;62934;49.420;8.652;2022-09-09T13:37:38;23.30;81.80
20704;DHT22;62934;49.420;8.652;2022-09-09T13:40:14;22.90;82.70
20704;DHT22;62934;49.420;8.652;2022-09-09T13:42:42;22.40;83.90
20704;DHT22;62934;49.420;8.652;2022-09-09T13:45:20;22.10;89.50
20704;DHT22;62934;49.420;8.652;2022-09-09T13:47:46;21.90;90.60
20704;DHT22;62934;49.420;8.652;2022-09-09T13:52:48;21.60;93.60
20704;DHT22;62934;49.420;8.652;2022-09-09T13:55:15;21.60;94.30
20704;DHT22;62934;49.420;8.652;2022-09-09T13:57:54;21.70;94.70
20704;DHT22;62934;49.420;8.652;2022-09-09T14:00:20;21.80;96.50
20704;DHT22;62934;49.420;8.652;2022-09-09T14:02:46;21.90;98.00
20704;DHT22;62934;49.420;8.652;2022-09-09T14:05:12;22.00;98.20
20704;DHT22;62934;49.420;8.652;2022-09-09T14:07:39;22.20;97.80
20704;DHT22;62934;49.420;8.652;2022-09-09T14:10:06;22.20;98.50
20704;DHT22;62934;49.420;8.652;2022-09-09T14:12:32;22.30;97.70
20704;DHT22;62934;49.420;8.652;2022-09-09T14:14:57;22.80;97.50
20704;DHT22;62934;49.420;8.652;2022-09-09T14:17:25;23.30;97.00
20704;DHT22;62934;49.420;8.652;2022-09-09T14:19:52;24.10;95.60
20704;DHT22;62934;49.420;8.652;2022-09-09T14:22:18;25.00;94.60
20704;DHT22;62934;49.420;8.652;2022-09-09T14:24:44;25.70;93.10
20704;DHT22;62934;49.420;8.652;2022-09-09T14:27:09;26.30;92.20
20704;DHT22;62934;49.420;8.652;2022-09-09T14:29:35;26.80;90.70
20704;DHT22;62934;49.420;8.652;2022-09-09T14:32:01;27.10;90.40
20704;DHT22;62934;49.420;8.652;2022-09-09T14:34:27;27.30;87.30
20704;DHT22;62934;49.420;8.652;2022-09-09T14:36:52;27.30;86.40
20704;DHT22;62934;49.420;8.652;2022-09-09T14:39:18;27.10;86.70
20704;DHT22;62934;49.420;8.652;2022-09-09T14:41:43;27.10;84.90
20704;DHT22;62934;49.420;8.652;2022-09-09T14:44:09;26.90;87.50
20704;DHT22;62934;49.420;8.652;2022-09-09T14:46:35;26.60;85.20
20704;DHT22;62934;49.420;8.652;2022-09-09T14:49:01;26.10;86.20
20704;DHT22;62934;49.420;8.652;2022-09-09T14:51:27;25.80;87.00
20704;DHT22;62934;49.420;8.652;2022-09-09T14:53:57;25.50;87.20
20704;DHT22;62934;49.420;8.652;2022-09-09T14:56:26;25.10;88.70
20704;DHT22;62934;49.420;8.652;2022-09-09T14:58:56;24.60;90.10
20704;DHT22;62934;49.420;8.652;2022-09-09T15:01:23;24.20;90.30
20704;DHT22;62934;49.420;8.652;2022-09-09T15:03:51;23.90;91.00
20704;DHT22;62934;49.420;8.652;2022-09-09T15:06:17;23.60;91.30
20704;DHT22;62934;49.420;8.652;2022-09-09T15:08:44;23.40;91.90
20704;DHT22;62934;49.420;8.652;2022-09-09T15:11:11;23.20;92.20
20704;DHT22;62934;49.420;8.652;2022-09-09T15:13:39;23.10;92.40
20704;DHT22;62934;49.420;8.652;2022-09-09T15:16:17;22.90;92.80
20704;DHT22;62934;49.420;8.652;2022-09-09T15:18:44;22.80;93.20
20704;DHT22;62934;49.420;8.652;2022-09-09T15:21:15;22.80;93.80
20704;DHT22;62934;49.420;8.652;2022-09-09T15:23:41;22.70;94.00
20704;DHT22;62934;49.420;8.652;2022-09-09T15:26:07;22.50;94.60
20704;DHT22;62934;49.420;8.652;2022-09-09T15:28:34;22.40;95.20
20704;DHT22;62934;49.420;8.652;2022-09-09T15:31:11;22.30;96.10
20704;DHT22;62934;49.420;8.652;2022-09-09T15:33:40;21.90;94.30
20704;DHT22;62934;49.420;8.652;2022-09-09T15:36:27;21.50;94.10
20704;DHT22;62934;49.420;8.652;2022-09-09T15:38:54;21.10;96.20
20704;DHT22;62934;49.420;8.652;2022-09-09T15:41:22;20.80;96.60
20704;DHT22;62934;49.420;8.652;2022-09-09T15:43:50;20.60;98.40
20704;DHT22;62934;49.420;8.652;2022-09-09T15:48:43;20.30;99.90
20704;DHT22;62934;49.420;8.652;2022-09-09T15:51:14;20.30;99.90
20704;DHT22;62934;49.420;8.652;2022-09-09T15:53:39;20.50;99.90
20704;DHT22;62934;49.420;8.652;2022-09-09T15:56:06;20.80;99.90
20704;DHT22;62934;49.420;8.652;2022-09-09T15:58:33;21.20;99.90
20704;DHT22;62934;49.420;8.652;2022-09-09T16:01:06;21.50;99.90
20704;DHT22;62934;49.420;8.652;2022-09-09T16:03:36;21.80;99.90
20704;DHT22;62934;49.420;8.652;2022-09-09T16:06:03;22.00;99.90
20704;DHT22;62934;49.420;8.652;2022-09-09T16:08:38;22.20;99.90
20704;DHT22;62934;49.420;8.652;2022-09-09T16:11:09;22.30;99.90
20704;DHT22;62934;49.420;8.652;2022-09-09T16:13:39;22.70;99.90
20704;DHT22;62934;49.420;8.652;2022-09-09T16:16:06;23.00;98.50
20704;DHT22;62934;49.420;8.652;2022-09-09T16:18:37;22.80;99.30
20704;DHT22;62934;49.420;8.652;2022-09-09T16:21:04;22.70;99.60
20704;DHT22;62934;49.420;8.652;2022-09-09T16:23:34;22.70;99.90
20704;DHT22;62934;49.420;8.652;2022-09-09T16:26:00;22.70;99.90
20704;DHT22;62934;49.420;8.652;2022-09-09T16:28:26;22.70;99.20
20704;DHT22;62934;49.420;8.652;2022-09-09T16:30:52;22.70;99.20
20704;DHT22;62934;49.420;8.652;2022-09-09T16:33:19;22.70;99.70
20704;DHT22;62934;49.420;8.652;2022-09-09T16:35:44;22.50;99.90
20704;DHT22;62934;49.420;8.652;2022-09-09T16:38:10;22.40;99.90
20704;DHT22;62934;49.420;8.652;2022-09-09T16:40:39;22.40;99.90
20704;DHT22;62934;49.420;8.652;2022-09-09T16:43:07;22.40;99.90
20704;DHT22;62934;49.420;8.652;2022-09-09T16:45:33;22.50;99.90
20704;DHT22;62934;49.420;8.652;2022-09-09T16:47:59;22.40;99.90
20704;DHT22;62934;49.420;8.652;2022-09-09T16:50:26;22.40;99.90
20704;DHT22;62934;49.420;8.652;2022-09-09T16:52:52;22.40;99.90
20704;DHT22;62934;49.420;8.652;2022-09-09T16:55:18;22.40;99.90
20704;DHT22;62934;49.420;8.652;2022-09-09T16:57:46;22.40;99.90
20704;DHT22;62934;49.420;8.652;2022-09-09T17:00:14;22.40;99.90
20704;DHT22;62934;49.420;8.652;2022-09-09T17:02:40;22.40;99.90
20704;DHT22;62934;49.420;8.652;2022-09-09T17:05:06;22.40;99.90
20704;DHT22;62934;49.420;8.652;2022-09-09T17:07:31;22.40;99.90
20704;DHT22;62934;49.420;8.652;2022-09-09T17:09:57;22.40;99.90
20704;DHT22;62934;49.420;8.652;2022-09-09T17:12:23;22.40;99.90
20704;DHT22;62934;49.420;8.652;2022-09-09T17:14:50;22.40;99.90
20704;DHT22;62934;49.420;8.652;2022-09-09T17:17:16;22.30;99.90
20704;DHT22;62934;49.420;8.652;2022-09-09T17:19:42;22.30;99.90
20704;DHT22;62934;49.420;8.652;2022-09-09T17:22:08;22.30;99.90
20704;DHT22;62934;49.420;8.652;2022-09-09T17:24:34;22.30;99.90
20704;DHT22;62934;49.420;8.652;2022-09-09T17:27:00;22.10;99.90
20704;DHT22;62934;49.420;8.652;2022-09-09T17:29:26;21.80;99.90
20704;DHT22;62934;49.420;8.652;2022-09-09T17:31:53;21.50;99.90
20704;DHT22;62934;49.420;8.652;2022-09-09T17:34:19;21.20;99.90
20704;DHT22;62934;49.420;8.652;2022-09-09T17:36:45;21.00;99.90
20704;DHT22;62934;49.420;8.652;2022-09-09T17:39:10;20.90;99.90
20704;DHT22;62934;49.420;8.652;2022-09-09T17:41:37;20.80;99.90
20704;DHT22;62934;49.420;8.652;2022-09-09T17:44:05;20.70;99.90
20704;DHT22;62934;49.420;8.652;2022-09-09T17:46:36;20.70;99.90
20704;DHT22;62934;49.420;8.652;2022-09-09T17:49:05;20.60;99.90
20704;DHT22;62934;49.420;8.652;2022-09-09T17:51:33;20.60;99.90
20704;DHT22;62934;49.420;8.652;2022-09-09T17:54:03;20.50;99.90
20704;DHT22;62934;49.420;8.652;2022-09-09T17:56:31;20.50;99.90
20704;DHT22;62934;49.420;8.652;2022-09-09T17:58:58;20.60;99.90
20704;DHT22;62934;49.420;8.652;2022-09-09T18:01:30;20.60;99.90
20704;DHT22;62934;49.420;8.652;2022-09-09T18:04:01;20.80;99.90